sensor_id;sensor_type;location;lat;lon;timestamp;P1;durP1;ratioP1;P2;durP2;ratioP2
32295;SDS011;18781;51.550;5.418;2023-05-24T00:02:18;8.40;;;2.30;;
32295;SDS011;18781;51.550;5.418;2023-05-24T00:04:44;15.40;;;2.83;;
32295;SDS011;18781;51.550;5.418;2023-05-24T00:07:10;11.18;;;2.47;;
32295;SDS011;18781;51.550;5.418;2023-05-24T00:09:35;11.63;;;2.40;;
32295;SDS011;18781;51.550;5.418;2023-05-24T00:12:01;13.75;;;2.60;;
32295;SDS011;18781;51.550;5.418;2023-05-24T00:14:27;10.32;;;2.75;;
32295;SDS011;18781;51.550;5.418;2023-05-24T00:16:53;12.63;;;2.22;;
32295;SDS011;18781;51.550;5.418;2023-05-24T00:19:18;10.73;;;2.67;;
32295;SDS011;18781;51.550;5.418;2023-05-24T00:21:47;8.30;;;2.42;;
32295;SDS011;18781;51.550;5.418;2023-05-24T00:24:13;14.57;;;2.83;;
32295;SDS011;18781;51.550;5.418;2023-05-24T00:26:38;12.20;;;2.70;;
32295;SDS011;18781;51.550;5.418;2023-05-24T00:29:04;10.05;;;2.85;;
32295;SDS011;18781;51.550;5.418;2023-05-24T00:31:30;13.48;;;2.67;;
32295;SDS011;18781;51.550;5.418;2023-05-24T00:33:55;10.75;;;2.55;;
32295;SDS011;18781;51.550;5.418;2023-05-24T00:36:21;10.77;;;3.08;;
32295;SDS011;18781;51.550;5.418;2023-05-24T00:38:47;14.55;;;2.45;;
32295;SDS011;18781;51.550;5.418;2023-05-24T00:41:12;12.82;;;2.92;;
32295;SDS011;18781;51.550;5.418;2023-05-24T00:43:38;14.00;;;2.63;;
32295;SDS011;18781;51.550;5.418;2023-05-24T00:46:20;9.30;;;2.95;;
32295;SDS011;18781;51.550;5.418;2023-05-24T00:48:48;14.00;;;2.53;;
32295;SDS011;18781;51.550;5.418;2023-05-24T00:51:14;12.35;;;2.67;;
32295;SDS011;18781;51.550;5.418;2023-05-24T00:53:41;10.38;;;2.20;;
32295;SDS011;18781;51.550;5.418;2023-05-24T00:58:36;13.65;;;2.30;;
32295;SDS011;18781;51.550;5.418;2023-05-24T01:01:02;13.00;;;2.83;;
32295;SDS011;18781;51.550;5.418;2023-05-24T01:03:28;11.23;;;2.20;;
32295;SDS011;18781;51.550;5.418;2023-05-24T01:05:57;12.93;;;2.58;;
32295;SDS011;18781;51.550;5.418;2023-05-24T01:11:05;6.78;;;1.88;;
32295;SDS011;18781;51.550;5.418;2023-05-24T01:13:49;11.25;;;2.75;;
32295;SDS011;18781;51.550;5.418;2023-05-24T01:16:23;11.82;;;2.40;;
32295;SDS011;18781;51.550;5.418;2023-05-24T01:18:56;11.73;;;2.75;;
32295;SDS011;18781;51.550;5.418;2023-05-24T01:24:21;11.82;;;3.03;;
32295;SDS011;18781;51.550;5.418;2023-05-24T01:29:17;10.20;;;3.00;;
32295;SDS011;18781;51.550;5.418;2023-05-24T01:31:43;11.00;;;2.88;;
32295;SDS011;18781;51.550;5.418;2023-05-24T01:34:10;8.55;;;2.60;;
32295;SDS011;18781;51.550;5.418;2023-05-24T01:36:35;7.68;;;3.03;;
32295;SDS011;18781;51.550;5.418;2023-05-24T01:39:01;8.32;;;2.70;;
32295;SDS011;18781;51.550;5.418;2023-05-24T01:41:35;9.63;;;2.90;;
32295;SDS011;18781;51.550;5.418;2023-05-24T01:50:20;10.55;;;2.72;;
32295;SDS011;18781;51.550;5.418;2023-05-24T01:52:50;9.73;;;2.53;;
32295;SDS011;18781;51.550;5.418;2023-05-24T01:55:17;9.13;;;3.00;;
32295;SDS011;18781;51.550;5.418;2023-05-24T01:57:45;9.70;;;2.80;;
32295;SDS011;18781;51.550;5.418;2023-05-24T02:00:14;13.07;;;3.20;;
32295;SDS011;18781;51.550;5.418;2023-05-24T02:02:43;13.13;;;3.25;;
32295;SDS011;18781;51.550;5.418;2023-05-24T02:05:09;8.55;;;2.92;;
32295;SDS011;18781;51.550;5.418;2023-05-24T02:07:35;12.75;;;2.60;;
32295;SDS011;18781;51.550;5.418;2023-05-24T02:10:01;12.90;;;3.20;;
32295;SDS011;18781;51.550;5.418;2023-05-24T02:12:28;11.40;;;3.15;;
32295;SDS011;18781;51.550;5.418;2023-05-24T02:14:53;11.50;;;3.22;;
32295;SDS011;18781;51.550;5.418;2023-05-24T02:17:21;8.95;;;3.20;;
32295;SDS011;18781;51.550;5.418;2023-05-24T02:19:47;10.95;;;2.78;;
32295;SDS011;18781;51.550;5.418;2023-05-24T02:22:12;13.48;;;3.47;;
32295;SDS011;18781;51.550;5.418;2023-05-24T02:24:38;9.43;;;2.97;;
32295;SDS011;18781;51.550;5.418;2023-05-24T02:27:04;12.23;;;2.90;;
32295;SDS011;18781;51.550;5.418;2023-05-24T02:29:30;11.57;;;3.13;;
32295;SDS011;18781;51.550;5.418;2023-05-24T02:31:56;9.82;;;3.00;;
32295;SDS011;18781;51.550;5.418;2023-05-24T02:34:21;10.98;;;3.00;;
32295;SDS011;18781;51.550;5.418;2023-05-24T02:36:48;8.73;;;3.20;;
32295;SDS011;18781;51.550;5.418;2023-05-24T02:39:14;7.78;;;3.03;;
32295;SDS011;18781;51.550;5.418;2023-05-24T02:41:39;9.27;;;3.15;;
32295;SDS011;18781;51.550;5.418;2023-05-24T02:44:05;11.52;;;3.00;;
32295;SDS011;18781;51.550;5.418;2023-05-24T02:46:31;11.10;;;2.90;;
32295;SDS011;18781;51.550;5.418;2023-05-24T02:48:57;12.52;;;3.35;;
32295;SDS011;18781;51.550;5.418;2023-05-24T02:51:22;14.57;;;3.78;;
32295;SDS011;18781;51.550;5.418;2023-05-24T02:53:48;7.35;;;3.15;;
32295;SDS011;18781;51.550;5.418;2023-05-24T02:56:14;10.40;;;3.00;;
32295;SDS011;18781;51.550;5.418;2023-05-24T02:58:41;12.80;;;3.45;;
32295;SDS011;18781;51.550;5.418;2023-05-24T03:01:08;14.50;;;3.38;;
32295;SDS011;18781;51.550;5.418;2023-05-24T03:03:36;11.32;;;3.25;;
32295;SDS011;18781;51.550;5.418;2023-05-24T03:06:02;9.65;;;2.90;;
32295;SDS011;18781;51.550;5.418;2023-05-24T03:08:28;11.95;;;3.60;;
32295;SDS011;18781;51.550;5.418;2023-05-24T03:10:53;9.85;;;3.53;;
32295;SDS011;18781;51.550;5.418;2023-05-24T03:13:19;10.68;;;3.45;;
32295;SDS011;18781;51.550;5.418;2023-05-24T03:15:44;8.57;;;2.97;;
32295;SDS011;18781;51.550;5.418;2023-05-24T03:18:10;6.60;;;2.90;;
32295;SDS011;18781;51.550;5.418;2023-05-24T03:20:36;10.13;;;3.22;;
32295;SDS011;18781;51.550;5.418;2023-05-24T03:23:01;16.13;;;2.72;;
32295;SDS011;18781;51.550;5.418;2023-05-24T03:25:27;12.75;;;3.88;;
32295;SDS011;18781;51.550;5.418;2023-05-24T03:27:52;10.52;;;3.50;;
32295;SDS011;18781;51.550;5.418;2023-05-24T03:30:18;10.02;;;3.58;;
32295;SDS011;18781;51.550;5.418;2023-05-24T03:32:43;12.88;;;3.67;;
32295;SDS011;18781;51.550;5.418;2023-05-24T03:35:09;14.60;;;4.13;;
32295;SDS011;18781;51.550;5.418;2023-05-24T03:37:36;11.48;;;3.60;;
32295;SDS011;18781;51.550;5.418;2023-05-24T03:40:02;10.90;;;3.70;;
32295;SDS011;18781;51.550;5.418;2023-05-24T03:42:29;11.00;;;4.25;;
32295;SDS011;18781;51.550;5.418;2023-05-24T03:44:54;15.98;;;4.20;;
32295;SDS011;18781;51.550;5.418;2023-05-24T03:47:20;9.30;;;3.70;;
32295;SDS011;18781;51.550;5.418;2023-05-24T03:49:45;13.07;;;4.30;;
32295;SDS011;18781;51.550;5.418;2023-05-24T03:52:11;12.43;;;4.15;;
32295;SDS011;18781;51.550;5.418;2023-05-24T03:54:37;15.07;;;4.10;;
32295;SDS011;18781;51.550;5.418;2023-05-24T03:57:02;10.32;;;3.83;;
32295;SDS011;18781;51.550;5.418;2023-05-24T03:59:28;10.38;;;3.85;;
32295;SDS011;18781;51.550;5.418;2023-05-24T04:01:54;16.83;;;4.10;;
32295;SDS011;18781;51.550;5.418;2023-05-24T04:04:20;14.10;;;3.95;;
32295;SDS011;18781;51.550;5.418;2023-05-24T04:06:46;12.52;;;3.92;;
32295;SDS011;18781;51.550;5.418;2023-05-24T04:09:12;9.82;;;4.10;;
32295;SDS011;18781;51.550;5.418;2023-05-24T04:11:37;11.05;;;4.40;;
32295;SDS011;18781;51.550;5.418;2023-05-24T04:14:03;10.32;;;3.45;;
32295;SDS011;18781;51.550;5.418;2023-05-24T04:16:28;9.35;;;4.00;;
32295;SDS011;18781;51.550;5.418;2023-05-24T04:18:57;8.60;;;4.63;;
32295;SDS011;18781;51.550;5.418;2023-05-24T04:21:25;19.42;;;4.15;;
32295;SDS011;18781;51.550;5.418;2023-05-24T04:23:50;15.07;;;4.88;;
32295;SDS011;18781;51.550;5.418;2023-05-24T04:26:16;16.55;;;4.95;;
32295;SDS011;18781;51.550;5.418;2023-05-24T04:28:42;12.63;;;4.28;;
32295;SDS011;18781;51.550;5.418;2023-05-24T04:31:09;11.77;;;4.40;;
32295;SDS011;18781;51.550;5.418;2023-05-24T04:33:35;15.43;;;4.88;;
32295;SDS011;18781;51.550;5.418;2023-05-24T04:36:03;16.55;;;4.82;;
32295;SDS011;18781;51.550;5.418;2023-05-24T04:38:29;19.65;;;5.05;;
32295;SDS011;18781;51.550;5.418;2023-05-24T04:40:56;11.20;;;4.82;;
32295;SDS011;18781;51.550;5.418;2023-05-24T04:43:25;14.88;;;4.97;;
32295;SDS011;18781;51.550;5.418;2023-05-24T04:45:51;11.10;;;4.95;;
32295;SDS011;18781;51.550;5.418;2023-05-24T04:48:20;16.40;;;5.50;;
32295;SDS011;18781;51.550;5.418;2023-05-24T04:50:51;20.48;;;5.32;;
32295;SDS011;18781;51.550;5.418;2023-05-24T04:53:17;16.88;;;5.30;;
32295;SDS011;18781;51.550;5.418;2023-05-24T04:55:43;16.67;;;4.85;;
32295;SDS011;18781;51.550;5.418;2023-05-24T04:58:09;21.45;;;5.57;;
32295;SDS011;18781;51.550;5.418;2023-05-24T05:00:35;16.38;;;5.45;;
32295;SDS011;18781;51.550;5.418;2023-05-24T05:03:00;12.00;;;5.07;;
32295;SDS011;18781;51.550;5.418;2023-05-24T05:05:26;17.05;;;5.93;;
32295;SDS011;18781;51.550;5.418;2023-05-24T05:07:51;16.42;;;5.82;;
32295;SDS011;18781;51.550;5.418;2023-05-24T05:10:17;17.00;;;5.95;;
32295;SDS011;18781;51.550;5.418;2023-05-24T05:12:43;23.98;;;6.60;;
32295;SDS011;18781;51.550;5.418;2023-05-24T05:15:08;17.25;;;6.45;;
32295;SDS011;18781;51.550;5.418;2023-05-24T05:17:34;23.45;;;6.10;;
32295;SDS011;18781;51.550;5.418;2023-05-24T05:20:01;20.35;;;6.22;;
32295;SDS011;18781;51.550;5.418;2023-05-24T05:22:27;21.17;;;7.18;;
32295;SDS011;18781;51.550;5.418;2023-05-24T05:24:53;20.70;;;8.02;;
32295;SDS011;18781;51.550;5.418;2023-05-24T05:27:18;24.88;;;7.80;;
32295;SDS011;18781;51.550;5.418;2023-05-24T05:29:44;24.80;;;8.45;;
32295;SDS011;18781;51.550;5.418;2023-05-24T05:32:09;30.02;;;8.40;;
32295;SDS011;18781;51.550;5.418;2023-05-24T05:34:35;26.42;;;8.52;;
32295;SDS011;18781;51.550;5.418;2023-05-24T05:37:00;27.88;;;9.45;;
32295;SDS011;18781;51.550;5.418;2023-05-24T05:39:27;36.85;;;8.05;;
32295;SDS011;18781;51.550;5.418;2023-05-24T05:41:53;31.50;;;7.97;;
32295;SDS011;18781;51.550;5.418;2023-05-24T05:44:18;27.27;;;7.82;;
32295;SDS011;18781;51.550;5.418;2023-05-24T05:46:44;41.28;;;8.85;;
32295;SDS011;18781;51.550;5.418;2023-05-24T05:49:10;29.33;;;8.02;;
32295;SDS011;18781;51.550;5.418;2023-05-24T05:51:36;33.45;;;8.00;;
32295;SDS011;18781;51.550;5.418;2023-05-24T05:54:03;31.55;;;8.38;;
32295;SDS011;18781;51.550;5.418;2023-05-24T05:56:29;29.20;;;7.93;;
32295;SDS011;18781;51.550;5.418;2023-05-24T05:58:55;33.83;;;8.57;;
32295;SDS011;18781;51.550;5.418;2023-05-24T06:01:20;29.67;;;8.18;;
32295;SDS011;18781;51.550;5.418;2023-05-24T06:03:46;32.53;;;7.85;;
32295;SDS011;18781;51.550;5.418;2023-05-24T06:06:12;40.50;;;8.55;;
32295;SDS011;18781;51.550;5.418;2023-05-24T06:08:38;33.72;;;8.75;;
32295;SDS011;18781;51.550;5.418;2023-05-24T06:11:04;29.85;;;8.25;;
32295;SDS011;18781;51.550;5.418;2023-05-24T06:13:30;34.97;;;8.52;;
32295;SDS011;18781;51.550;5.418;2023-05-24T06:15:57;31.58;;;8.02;;
32295;SDS011;18781;51.550;5.418;2023-05-24T06:18:22;39.63;;;8.57;;
32295;SDS011;18781;51.550;5.418;2023-05-24T06:20:49;41.88;;;8.88;;
32295;SDS011;18781;51.550;5.418;2023-05-24T06:23:15;33.13;;;8.55;;
32295;SDS011;18781;51.550;5.418;2023-05-24T06:25:40;43.22;;;8.52;;
32295;SDS011;18781;51.550;5.418;2023-05-24T06:28:07;45.10;;;8.88;;
32295;SDS011;18781;51.550;5.418;2023-05-24T06:30:33;28.15;;;8.80;;
32295;SDS011;18781;51.550;5.418;2023-05-24T06:32:59;37.33;;;8.93;;
32295;SDS011;18781;51.550;5.418;2023-05-24T06:35:25;40.85;;;9.10;;
32295;SDS011;18781;51.550;5.418;2023-05-24T06:37:50;43.40;;;8.75;;
32295;SDS011;18781;51.550;5.418;2023-05-24T06:40:16;37.67;;;9.85;;
32295;SDS011;18781;51.550;5.418;2023-05-24T06:42:42;33.58;;;8.95;;
32295;SDS011;18781;51.550;5.418;2023-05-24T06:45:07;35.47;;;9.63;;
32295;SDS011;18781;51.550;5.418;2023-05-24T06:47:33;34.75;;;9.82;;
32295;SDS011;18781;51.550;5.418;2023-05-24T06:50:00;38.80;;;10.07;;
32295;SDS011;18781;51.550;5.418;2023-05-24T06:52:28;37.17;;;10.15;;
32295;SDS011;18781;51.550;5.418;2023-05-24T06:54:53;43.90;;;10.75;;
32295;SDS011;18781;51.550;5.418;2023-05-24T06:57:19;46.25;;;10.13;;
32295;SDS011;18781;51.550;5.418;2023-05-24T06:59:45;42.42;;;10.23;;
32295;SDS011;18781;51.550;5.418;2023-05-24T07:02:11;43.55;;;11.23;;
32295;SDS011;18781;51.550;5.418;2023-05-24T07:04:37;37.67;;;10.25;;
32295;SDS011;18781;51.550;5.418;2023-05-24T07:07:05;44.28;;;11.15;;
32295;SDS011;18781;51.550;5.418;2023-05-24T07:09:32;28.20;;;10.18;;
32295;SDS011;18781;51.550;5.418;2023-05-24T07:11:58;38.90;;;10.30;;
32295;SDS011;18781;51.550;5.418;2023-05-24T07:14:24;30.60;;;9.18;;
32295;SDS011;18781;51.550;5.418;2023-05-24T07:16:51;35.03;;;10.63;;
32295;SDS011;18781;51.550;5.418;2023-05-24T07:19:18;32.13;;;10.50;;
32295;SDS011;18781;51.550;5.418;2023-05-24T07:21:45;37.38;;;9.65;;
32295;SDS011;18781;51.550;5.418;2023-05-24T07:24:11;41.00;;;11.23;;
32295;SDS011;18781;51.550;5.418;2023-05-24T07:26:37;37.95;;;9.38;;
32295;SDS011;18781;51.550;5.418;2023-05-24T07:29:02;31.23;;;8.95;;
32295;SDS011;18781;51.550;5.418;2023-05-24T07:31:28;29.20;;;9.15;;
32295;SDS011;18781;51.550;5.418;2023-05-24T07:33:56;31.27;;;9.25;;
32295;SDS011;18781;51.550;5.418;2023-05-24T07:36:22;32.22;;;8.70;;
32295;SDS011;18781;51.550;5.418;2023-05-24T07:38:49;31.30;;;8.77;;
32295;SDS011;18781;51.550;5.418;2023-05-24T07:41:15;30.48;;;8.82;;
32295;SDS011;18781;51.550;5.418;2023-05-24T07:43:41;32.65;;;8.32;;
32295;SDS011;18781;51.550;5.418;2023-05-24T07:46:07;34.15;;;8.30;;
32295;SDS011;18781;51.550;5.418;2023-05-24T07:48:34;35.55;;;7.97;;
32295;SDS011;18781;51.550;5.418;2023-05-24T07:50:59;26.98;;;6.95;;
32295;SDS011;18781;51.550;5.418;2023-05-24T07:53:25;28.00;;;7.63;;
32295;SDS011;18781;51.550;5.418;2023-05-24T07:55:51;30.15;;;7.38;;
32295;SDS011;18781;51.550;5.418;2023-05-24T07:58:16;32.67;;;7.32;;
32295;SDS011;18781;51.550;5.418;2023-05-24T08:00:42;29.98;;;6.82;;
32295;SDS011;18781;51.550;5.418;2023-05-24T08:03:07;26.10;;;5.80;;
32295;SDS011;18781;51.550;5.418;2023-05-24T08:05:33;31.25;;;6.15;;
32295;SDS011;18781;51.550;5.418;2023-05-24T08:07:59;25.33;;;5.65;;
32295;SDS011;18781;51.550;5.418;2023-05-24T08:10:24;31.10;;;6.25;;
32295;SDS011;18781;51.550;5.418;2023-05-24T08:12:50;26.83;;;5.78;;
32295;SDS011;18781;51.550;5.418;2023-05-24T08:15:18;30.98;;;5.85;;
32295;SDS011;18781;51.550;5.418;2023-05-24T08:17:44;24.27;;;5.70;;
32295;SDS011;18781;51.550;5.418;2023-05-24T08:20:10;28.55;;;6.63;;
32295;SDS011;18781;51.550;5.418;2023-05-24T08:22:39;26.50;;;6.10;;
32295;SDS011;18781;51.550;5.418;2023-05-24T08:25:05;21.73;;;6.50;;
32295;SDS011;18781;51.550;5.418;2023-05-24T08:27:30;27.55;;;6.88;;
32295;SDS011;18781;51.550;5.418;2023-05-24T08:29:57;24.65;;;5.75;;
32295;SDS011;18781;51.550;5.418;2023-05-24T08:32:22;34.30;;;6.93;;
32295;SDS011;18781;51.550;5.418;2023-05-24T08:34:48;31.17;;;6.88;;
32295;SDS011;18781;51.550;5.418;2023-05-24T08:37:14;23.10;;;6.07;;
32295;SDS011;18781;51.550;5.418;2023-05-24T08:39:43;21.88;;;5.72;;
32295;SDS011;18781;51.550;5.418;2023-05-24T08:42:09;30.52;;;6.18;;
32295;SDS011;18781;51.550;5.418;2023-05-24T08:44:40;17.63;;;5.88;;
32295;SDS011;18781;51.550;5.418;2023-05-24T08:47:09;25.85;;;5.80;;
32295;SDS011;18781;51.550;5.418;2023-05-24T08:49:36;27.38;;;6.35;;
32295;SDS011;18781;51.550;5.418;2023-05-24T08:52:02;31.30;;;6.63;;
32295;SDS011;18781;51.550;5.418;2023-05-24T08:54:31;27.17;;;6.10;;
32295;SDS011;18781;51.550;5.418;2023-05-24T08:59:26;24.17;;;5.30;;
32295;SDS011;18781;51.550;5.418;2023-05-24T09:01:52;30.75;;;6.40;;
32295;SDS011;18781;51.550;5.418;2023-05-24T09:04:19;25.50;;;5.80;;
32295;SDS011;18781;51.550;5.418;2023-05-24T09:06:46;23.77;;;5.93;;
32295;SDS011;18781;51.550;5.418;2023-05-24T09:09:13;21.50;;;5.32;;
32295;SDS011;18781;51.550;5.418;2023-05-24T09:11:42;35.47;;;6.35;;
32295;SDS011;18781;51.550;5.418;2023-05-24T09:14:11;26.92;;;5.93;;
32295;SDS011;18781;51.550;5.418;2023-05-24T09:16:38;24.15;;;5.57;;
32295;SDS011;18781;51.550;5.418;2023-05-24T09:19:03;25.50;;;5.40;;
32295;SDS011;18781;51.550;5.418;2023-05-24T09:21:29;29.25;;;5.82;;
32295;SDS011;18781;51.550;5.418;2023-05-24T09:23:56;28.98;;;5.65;;
32295;SDS011;18781;51.550;5.418;2023-05-24T09:26:22;24.27;;;4.82;;
32295;SDS011;18781;51.550;5.418;2023-05-24T09:28:49;18.58;;;5.53;;
32295;SDS011;18781;51.550;5.418;2023-05-24T09:31:20;26.88;;;5.60;;
32295;SDS011;18781;51.550;5.418;2023-05-24T09:33:56;24.77;;;5.97;;
32295;SDS011;18781;51.550;5.418;2023-05-24T09:36:22;21.58;;;5.70;;
32295;SDS011;18781;51.550;5.418;2023-05-24T09:38:48;15.70;;;4.85;;
32295;SDS011;18781;51.550;5.418;2023-05-24T09:41:14;20.20;;;4.90;;
32295;SDS011;18781;51.550;5.418;2023-05-24T09:43:46;21.83;;;4.93;;
32295;SDS011;18781;51.550;5.418;2023-05-24T09:46:16;27.75;;;4.93;;
32295;SDS011;18781;51.550;5.418;2023-05-24T09:48:55;19.02;;;5.03;;
32295;SDS011;18781;51.550;5.418;2023-05-24T09:51:27;21.30;;;4.50;;
32295;SDS011;18781;51.550;5.418;2023-05-24T09:53:56;23.40;;;4.82;;
32295;SDS011;18781;51.550;5.418;2023-05-24T09:56:25;18.17;;;5.07;;
32295;SDS011;18781;51.550;5.418;2023-05-24T09:58:51;17.85;;;5.00;;
32295;SDS011;18781;51.550;5.418;2023-05-24T10:01:19;19.75;;;4.32;;
32295;SDS011;18781;51.550;5.418;2023-05-24T10:06:21;26.00;;;4.68;;
32295;SDS011;18781;51.550;5.418;2023-05-24T10:08:47;23.55;;;5.07;;
32295;SDS011;18781;51.550;5.418;2023-05-24T10:11:18;21.52;;;5.30;;
32295;SDS011;18781;51.550;5.418;2023-05-24T10:13:45;23.98;;;5.05;;
32295;SDS011;18781;51.550;5.418;2023-05-24T10:16:12;17.83;;;4.93;;
32295;SDS011;18781;51.550;5.418;2023-05-24T10:18:37;26.92;;;4.85;;
32295;SDS011;18781;51.550;5.418;2023-05-24T10:21:06;23.00;;;4.88;;
32295;SDS011;18781;51.550;5.418;2023-05-24T10:23:34;22.95;;;5.35;;
32295;SDS011;18781;51.550;5.418;2023-05-24T10:26:08;24.27;;;5.22;;
32295;SDS011;18781;51.550;5.418;2023-05-24T10:28:45;17.98;;;4.95;;
32295;SDS011;18781;51.550;5.418;2023-05-24T10:31:17;21.05;;;4.90;;
32295;SDS011;18781;51.550;5.418;2023-05-24T10:33:49;19.00;;;4.70;;
32295;SDS011;18781;51.550;5.418;2023-05-24T10:36:16;21.40;;;4.47;;
32295;SDS011;18781;51.550;5.418;2023-05-24T10:38:44;17.02;;;5.07;;
32295;SDS011;18781;51.550;5.418;2023-05-24T10:41:11;18.80;;;5.30;;
32295;SDS011;18781;51.550;5.418;2023-05-24T10:43:37;18.65;;;4.90;;
32295;SDS011;18781;51.550;5.418;2023-05-24T10:46:03;14.38;;;3.97;;
32295;SDS011;18781;51.550;5.418;2023-05-24T10:48:32;20.05;;;4.40;;
32295;SDS011;18781;51.550;5.418;2023-05-24T10:54:14;18.35;;;5.00;;
32295;SDS011;18781;51.550;5.418;2023-05-24T10:56:45;15.82;;;4.40;;
32295;SDS011;18781;51.550;5.418;2023-05-24T11:01:57;25.17;;;4.80;;
32295;SDS011;18781;51.550;5.418;2023-05-24T11:04:24;19.25;;;4.45;;
32295;SDS011;18781;51.550;5.418;2023-05-24T11:06:55;16.85;;;4.25;;
32295;SDS011;18781;51.550;5.418;2023-05-24T11:09:33;20.20;;;5.38;;
32295;SDS011;18781;51.550;5.418;2023-05-24T11:12:00;20.60;;;5.18;;
32295;SDS011;18781;51.550;5.418;2023-05-24T11:14:34;19.85;;;4.45;;
32295;SDS011;18781;51.550;5.418;2023-05-24T11:17:03;25.33;;;4.32;;
32295;SDS011;18781;51.550;5.418;2023-05-24T11:19:34;16.80;;;4.40;;
32295;SDS011;18781;51.550;5.418;2023-05-24T11:22:02;15.55;;;4.55;;
32295;SDS011;18781;51.550;5.418;2023-05-24T11:24:30;16.60;;;4.78;;
32295;SDS011;18781;51.550;5.418;2023-05-24T11:26:59;23.75;;;4.55;;
32295;SDS011;18781;51.550;5.418;2023-05-24T11:29:26;18.02;;;4.10;;
32295;SDS011;18781;51.550;5.418;2023-05-24T11:31:54;16.30;;;4.25;;
32295;SDS011;18781;51.550;5.418;2023-05-24T11:34:28;14.60;;;4.60;;
32295;SDS011;18781;51.550;5.418;2023-05-24T11:36:54;19.30;;;5.43;;
32295;SDS011;18781;51.550;5.418;2023-05-24T11:39:20;17.63;;;4.50;;
32295;SDS011;18781;51.550;5.418;2023-05-24T11:41:47;19.83;;;4.90;;
32295;SDS011;18781;51.550;5.418;2023-05-24T11:44:15;21.17;;;4.72;;
32295;SDS011;18781;51.550;5.418;2023-05-24T11:46:42;20.70;;;5.10;;
32295;SDS011;18781;51.550;5.418;2023-05-24T11:49:11;23.20;;;5.20;;
32295;SDS011;18781;51.550;5.418;2023-05-24T11:51:38;18.20;;;5.18;;
32295;SDS011;18781;51.550;5.418;2023-05-24T11:54:04;18.67;;;4.90;;
32295;SDS011;18781;51.550;5.418;2023-05-24T11:56:30;22.50;;;4.95;;
32295;SDS011;18781;51.550;5.418;2023-05-24T11:59:11;20.25;;;5.10;;
32295;SDS011;18781;51.550;5.418;2023-05-24T12:01:39;20.83;;;4.72;;
32295;SDS011;18781;51.550;5.418;2023-05-24T12:04:05;22.23;;;5.18;;
32295;SDS011;18781;51.550;5.418;2023-05-24T12:06:33;21.40;;;5.22;;
32295;SDS011;18781;51.550;5.418;2023-05-24T12:09:03;25.63;;;5.05;;
32295;SDS011;18781;51.550;5.418;2023-05-24T12:14:12;18.23;;;5.18;;
32295;SDS011;18781;51.550;5.418;2023-05-24T12:16:38;22.98;;;4.70;;
32295;SDS011;18781;51.550;5.418;2023-05-24T12:19:06;22.30;;;5.10;;
32295;SDS011;18781;51.550;5.418;2023-05-24T12:21:32;35.38;;;5.18;;
32295;SDS011;18781;51.550;5.418;2023-05-24T12:24:08;21.35;;;4.88;;
32295;SDS011;18781;51.550;5.418;2023-05-24T12:26:43;18.10;;;5.03;;
32295;SDS011;18781;51.550;5.418;2023-05-24T12:29:11;26.95;;;5.57;;
32295;SDS011;18781;51.550;5.418;2023-05-24T12:31:44;22.73;;;6.22;;
32295;SDS011;18781;51.550;5.418;2023-05-24T12:34:17;21.50;;;5.35;;
32295;SDS011;18781;51.550;5.418;2023-05-24T12:36:43;18.70;;;5.10;;
32295;SDS011;18781;51.550;5.418;2023-05-24T12:39:19;16.80;;;5.07;;
32295;SDS011;18781;51.550;5.418;2023-05-24T12:41:52;20.60;;;4.65;;
32295;SDS011;18781;51.550;5.418;2023-05-24T12:44:22;19.70;;;5.05;;
32295;SDS011;18781;51.550;5.418;2023-05-24T12:46:49;25.77;;;5.70;;
32295;SDS011;18781;51.550;5.418;2023-05-24T12:49:17;16.45;;;5.03;;
32295;SDS011;18781;51.550;5.418;2023-05-24T12:51:42;22.27;;;5.70;;
32295;SDS011;18781;51.550;5.418;2023-05-24T12:54:08;20.42;;;5.30;;
32295;SDS011;18781;51.550;5.418;2023-05-24T12:56:33;20.83;;;4.95;;
32295;SDS011;18781;51.550;5.418;2023-05-24T12:58:59;18.83;;;4.43;;
32295;SDS011;18781;51.550;5.418;2023-05-24T13:01:25;16.48;;;4.40;;
32295;SDS011;18781;51.550;5.418;2023-05-24T13:03:51;18.15;;;4.75;;
32295;SDS011;18781;51.550;5.418;2023-05-24T13:06:17;18.30;;;4.97;;
32295;SDS011;18781;51.550;5.418;2023-05-24T13:08:43;20.33;;;5.35;;
32295;SDS011;18781;51.550;5.418;2023-05-24T13:11:09;28.20;;;5.38;;
32295;SDS011;18781;51.550;5.418;2023-05-24T13:13:35;18.67;;;4.82;;
32295;SDS011;18781;51.550;5.418;2023-05-24T13:16:02;19.20;;;5.65;;
32295;SDS011;18781;51.550;5.418;2023-05-24T13:18:31;16.55;;;5.05;;
32295;SDS011;18781;51.550;5.418;2023-05-24T13:20:57;16.20;;;5.43;;
32295;SDS011;18781;51.550;5.418;2023-05-24T13:23:24;25.58;;;6.07;;
32295;SDS011;18781;51.550;5.418;2023-05-24T13:25:51;25.10;;;5.38;;
32295;SDS011;18781;51.550;5.418;2023-05-24T13:28:17;16.42;;;4.90;;
32295;SDS011;18781;51.550;5.418;2023-05-24T13:30:43;24.70;;;5.90;;
32295;SDS011;18781;51.550;5.418;2023-05-24T13:33:09;20.25;;;5.53;;
32295;SDS011;18781;51.550;5.418;2023-05-24T13:35:34;21.73;;;5.50;;
32295;SDS011;18781;51.550;5.418;2023-05-24T13:38:00;18.25;;;5.05;;
32295;SDS011;18781;51.550;5.418;2023-05-24T13:40:25;26.02;;;5.30;;
32295;SDS011;18781;51.550;5.418;2023-05-24T13:42:51;19.45;;;5.05;;
32295;SDS011;18781;51.550;5.418;2023-05-24T13:45:19;22.67;;;5.50;;
32295;SDS011;18781;51.550;5.418;2023-05-24T13:47:45;21.25;;;5.10;;
32295;SDS011;18781;51.550;5.418;2023-05-24T13:50:10;16.52;;;4.78;;
32295;SDS011;18781;51.550;5.418;2023-05-24T13:52:36;22.17;;;5.65;;
32295;SDS011;18781;51.550;5.418;2023-05-24T13:55:02;15.00;;;4.82;;
32295;SDS011;18781;51.550;5.418;2023-05-24T13:57:28;21.05;;;5.13;;
32295;SDS011;18781;51.550;5.418;2023-05-24T13:59:54;17.35;;;4.93;;
32295;SDS011;18781;51.550;5.418;2023-05-24T14:02:20;19.15;;;5.32;;
32295;SDS011;18781;51.550;5.418;2023-05-24T14:04:46;22.13;;;5.68;;
32295;SDS011;18781;51.550;5.418;2023-05-24T14:07:11;17.05;;;4.78;;
32295;SDS011;18781;51.550;5.418;2023-05-24T14:09:39;25.25;;;5.47;;
32295;SDS011;18781;51.550;5.418;2023-05-24T14:12:05;23.50;;;5.05;;
32295;SDS011;18781;51.550;5.418;2023-05-24T14:14:32;15.95;;;4.40;;
32295;SDS011;18781;51.550;5.418;2023-05-24T14:16:58;18.33;;;4.40;;
32295;SDS011;18781;51.550;5.418;2023-05-24T14:19:24;18.15;;;5.00;;
32295;SDS011;18781;51.550;5.418;2023-05-24T14:21:49;17.92;;;4.93;;
32295;SDS011;18781;51.550;5.418;2023-05-24T14:24:15;17.13;;;5.10;;
32295;SDS011;18781;51.550;5.418;2023-05-24T14:26:41;20.50;;;5.00;;
32295;SDS011;18781;51.550;5.418;2023-05-24T14:29:07;24.10;;;5.40;;
32295;SDS011;18781;51.550;5.418;2023-05-24T14:31:33;14.93;;;4.40;;
32295;SDS011;18781;51.550;5.418;2023-05-24T14:34:05;13.35;;;4.10;;
32295;SDS011;18781;51.550;5.418;2023-05-24T14:36:32;15.75;;;4.40;;
32295;SDS011;18781;51.550;5.418;2023-05-24T14:38:57;14.80;;;3.75;;
32295;SDS011;18781;51.550;5.418;2023-05-24T14:41:23;15.90;;;4.45;;
32295;SDS011;18781;51.550;5.418;2023-05-24T14:43:48;17.83;;;4.40;;
32295;SDS011;18781;51.550;5.418;2023-05-24T14:46:15;19.00;;;4.68;;
32295;SDS011;18781;51.550;5.418;2023-05-24T14:48:40;19.08;;;4.45;;
32295;SDS011;18781;51.550;5.418;2023-05-24T14:51:06;17.30;;;4.15;;
32295;SDS011;18781;51.550;5.418;2023-05-24T14:53:31;14.95;;;4.47;;
32295;SDS011;18781;51.550;5.418;2023-05-24T14:55:57;17.90;;;4.20;;
32295;SDS011;18781;51.550;5.418;2023-05-24T14:58:23;17.35;;;4.55;;
32295;SDS011;18781;51.550;5.418;2023-05-24T15:00:51;14.52;;;4.05;;
32295;SDS011;18781;51.550;5.418;2023-05-24T15:03:16;15.85;;;4.47;;
32295;SDS011;18781;51.550;5.418;2023-05-24T15:05:42;17.65;;;4.53;;